Time;durP1;ratioP1;P1;durP2;ratioP2;P2;SDS_P1;SDS_P2;PMS_P1;PMS_P2;Temp;Humidity;BMP_temperature;BMP_pressure;BME280_temperature;BME280_humidity;BME280_pressure;Samples;Min_cycle;Max_cycle;Signal;HPM_P1;HPM_P2
2021/07/03 00:01:55;;;;;;;4.20;3.30;;;;;;;18.42;69.64;99756.25;154059;1101;103110;-78
2021/07/03 00:05:00;;;;;;;5.53;3.30;;;;;;;18.41;69.75;99747.29;154207;1096;103124;-79
2021/07/03 00:08:06;;;;;;;4.40;3.17;;;;;;;18.33;70.05;99752.95;154262;1101;103213;-80
2021/07/03 00:11:11;;;;;;;3.83;3.43;;;;;;;18.31;70.09;99746.94;154379;1101;103103;-80
2021/07/03 00:14:17;;;;;;;4.53;3.27;;;;;;;18.36;69.92;99744.44;154837;1096;103230;-79
2021/07/03 00:17:22;;;;;;;4.00;3.45;;;;;;;18.34;70.05;99751.08;154313;1101;103756;-83
2021/07/03 00:20:28;;;;;;;4.08;3.48;;;;;;;18.31;70.37;99751.53;154054;1096;103224;-81
2021/07/03 00:23:33;;;;;;;3.88;3.08;;;;;;;18.32;70.21;99751.31;154140;1101;103175;-83
2021/07/03 00:26:38;;;;;;;5.00;3.93;;;;;;;18.35;70.20;99742.77;154788;1095;103101;-83
2021/07/03 00:29:43;;;;;;;4.27;3.20;;;;;;;18.42;70.18;99743.56;154594;1101;103070;-83
2021/07/03 00:32:48;;;;;;;6.43;3.70;;;;;;;18.41;70.41;99739.19;154393;1096;103192;-77
2021/07/03 00:35:53;;;;;;;4.58;3.70;;;;;;;18.35;70.36;99740.06;154171;1101;103128;-75
2021/07/03 00:38:58;;;;;;;4.35;3.80;;;;;;;18.36;70.71;99736.33;154015;1101;103187;-79
2021/07/03 00:42:04;;;;;;;4.13;3.05;;;;;;;18.22;70.98;99738.25;154132;1101;103188;-79
2021/07/03 00:45:10;;;;;;;4.03;3.28;;;;;;;18.15;70.89;99731.23;154232;1096;103179;-86
2021/07/03 00:48:16;;;;;;;5.57;3.40;;;;;;;18.05;71.73;99732.55;154035;1095;103166;-85
2021/07/03 00:51:22;;;;;;;4.83;3.47;;;;;;;17.95;71.50;99732.16;154094;1095;103243;-86
2021/07/03 00:54:29;;;;;;;5.00;3.70;;;;;;;17.89;71.90;99738.41;154281;1096;103257;-85
2021/07/03 00:57:37;;;;;;;5.13;3.87;;;;;;;17.84;72.11;99738.22;154421;1101;103160;-87
2021/07/03 01:00:42;;;;;;;4.93;3.67;;;;;;;17.74;73.14;99740.52;154837;1101;103187;-83
2021/07/03 01:03:48;;;;;;;4.03;3.27;;;;;;;17.71;72.28;99735.56;154028;1101;103556;-82
2021/07/03 01:06:53;;;;;;;4.57;3.67;;;;;;;17.63;72.56;99740.14;154375;1101;103317;-82
2021/07/03 01:09:59;;;;;;;4.00;3.27;;;;;;;17.60;72.80;99740.55;155863;1101;103277;-83
2021/07/03 01:13:05;;;;;;;3.30;3.00;;;;;;;17.66;72.93;99725.39;154059;1096;103128;-82
2021/07/03 01:16:11;;;;;;;4.50;3.50;;;;;;;17.65;72.78;99732.66;154251;1096;103692;-81
2021/07/03 01:19:17;;;;;;;3.70;3.28;;;;;;;17.58;72.83;99728.32;154095;1101;103496;-80
2021/07/03 01:22:22;;;;;;;4.77;3.60;;;;;;;17.51;73.63;99714.84;154826;1101;103221;-79
2021/07/03 01:25:28;;;;;;;4.15;3.00;;;;;;;17.55;72.98;99710.70;154552;1096;103138;-82
2021/07/03 01:28:34;;;;;;;5.13;3.18;;;;;;;17.59;73.49;99717.33;154382;1096;103127;-81
2021/07/03 01:31:43;;;;;;;3.40;3.00;;;;;;;17.61;72.81;99717.94;154096;1101;103195;-84
2021/07/03 01:34:48;;;;;;;5.13;3.40;;;;;;;17.66;73.11;99707.31;154090;1101;103068;-84
2021/07/03 01:38:01;;;;;;;3.98;3.38;;;;;;;17.63;73.12;99702.37;154108;1101;103499;-84
2021/07/03 01:41:07;;;;;;;4.48;3.43;;;;;;;17.63;73.10;99701.55;154130;1095;103128;-78
2021/07/03 01:44:32;;;;;;;3.23;2.93;;;;;;;17.56;73.36;99708.83;154291;1096;103113;-81
2021/07/03 01:47:44;;;;;;;4.87;3.40;;;;;;;17.56;73.53;99712.34;154887;1101;103559;-81
2021/07/03 01:50:49;;;;;;;3.77;3.17;;;;;;;17.62;73.75;99707.97;155423;1101;103811;-81
2021/07/03 01:53:54;;;;;;;5.10;4.03;;;;;;;17.59;74.79;99709.23;155557;1096;103104;-82
2021/07/03 01:57:00;;;;;;;4.80;3.70;;;;;;;17.54;74.46;99719.00;155697;1096;103108;-81
2021/07/03 02:00:16;;;;;;;5.40;3.63;;;;;;;17.55;74.06;99710.70;154908;1096;103203;-82
2021/07/03 02:03:27;;;;;;;4.00;3.28;;;;;;;17.62;73.52;99708.79;154175;1101;103132;-81
2021/07/03 02:06:33;;;;;;;5.50;4.75;;;;;;;17.64;74.88;99701.31;154082;1096;103195;-82
2021/07/03 02:09:39;;;;;;;6.80;5.20;;;;;;;17.61;74.15;99703.59;154379;1095;103194;-82
2021/07/03 02:12:44;;;;;;;5.67;4.67;;;;;;;17.60;74.14;99702.78;154495;1095;103303;-82
2021/07/03 02:16:02;;;;;;;6.33;4.77;;;;;;;17.67;74.39;99700.08;154105;1096;103496;-82
2021/07/03 02:19:11;;;;;;;6.40;4.33;;;;;;;17.73;73.60;99709.19;154450;1101;103198;-84
2021/07/03 02:22:17;;;;;;;6.60;5.07;;;;;;;17.70;74.15;99706.91;154655;1101;103116;-78
2021/07/03 02:25:27;;;;;;;8.20;4.80;;;;;;;17.57;74.62;99708.62;154064;1095;103136;-79
2021/07/03 02:28:38;;;;;;;7.37;4.60;;;;;;;17.57;75.20;99711.31;154625;1095;103199;-79
2021/07/03 02:31:56;;;;;;;5.53;4.50;;;;;;;17.53;75.63;99712.75;154365;1096;103144;-82
2021/07/03 02:35:02;;;;;;;5.60;4.35;;;;;;;17.48;75.59;99714.45;154327;1096;103128;-82
2021/07/03 02:38:08;;;;;;;6.65;4.10;;;;;;;17.51;74.46;99711.32;154005;1101;103147;-82
2021/07/03 02:41:13;;;;;;;6.20;4.13;;;;;;;17.49;74.74;99710.70;154077;1096;103193;-78
2021/07/03 02:44:19;;;;;;;4.43;3.90;;;;;;;17.44;75.11;99719.44;153999;1101;103278;-79
2021/07/03 02:47:24;;;;;;;6.27;4.00;;;;;;;17.45;75.29;99711.11;154075;1101;103190;-79
2021/07/03 02:50:30;;;;;;;5.53;4.43;;;;;;;17.43;77.23;99717.77;154076;1096;103147;-86
2021/07/03 02:53:36;;;;;;;6.97;4.50;;;;;;;17.33;76.73;99712.81;154084;1101;103193;-82
2021/07/03 02:56:42;;;;;;;5.73;3.88;;;;;;;17.33;76.04;99711.99;154430;1096;103190;-80
2021/07/03 02:59:48;;;;;;;5.50;4.10;;;;;;;17.25;75.89;99711.17;154006;1096;103323;-82
2021/07/03 03:02:54;;;;;;;5.20;3.97;;;;;;;17.29;77.14;99724.25;154093;1101;103247;-82
2021/07/03 03:06:00;;;;;;;4.70;4.00;;;;;;;17.23;76.77;99713.25;154041;1096;103217;-83
2021/07/03 03:09:06;;;;;;;5.23;4.33;;;;;;;17.23;77.13;99724.03;153987;1101;103118;-81
2021/07/03 03:12:11;;;;;;;4.60;4.13;;;;;;;17.17;77.23;99719.48;154060;1101;103563;-83
2021/07/03 03:15:18;;;;;;;4.43;3.88;;;;;;;17.15;76.60;99715.32;154109;1096;103310;-83
2021/07/03 03:18:24;;;;;;;5.67;3.70;;;;;;;17.11;76.68;99723.02;154165;1101;103142;-81
2021/07/03 03:21:30;;;;;;;5.43;4.20;;;;;;;17.13;77.86;99720.95;154077;1101;103190;-83
2021/07/03 03:24:35;;;;;;;5.03;4.13;;;;;;;17.12;77.51;99716.58;154099;1101;103212;-83
2021/07/03 03:27:41;;;;;;;5.78;4.75;;;;;;;17.11;77.13;99725.72;154097;1096;103136;-83
2021/07/03 03:30:46;;;;;;;6.70;4.10;;;;;;;17.10;77.82;99724.05;154111;1096;103222;-81
2021/07/03 03:33:56;;;;;;;4.30;3.90;;;;;;;17.11;76.79;99731.11;154139;1095;103153;-80
2021/07/03 03:37:02;;;;;;;7.00;4.50;;;;;;;17.14;77.89;99730.67;154108;1096;103202;-83
2021/07/03 03:40:11;;;;;;;7.90;4.80;;;;;;;17.12;77.10;99721.97;154035;1096;103123;-82
2021/07/03 03:43:16;;;;;;;4.80;4.20;;;;;;;17.09;77.34;99730.49;154172;1101;103223;-86
2021/07/03 03:46:23;;;;;;;8.90;4.30;;;;;;;17.11;78.06;99730.26;154237;1096;103397;-89
2021/07/03 03:49:29;;;;;;;5.10;4.53;;;;;;;17.12;79.02;99732.75;154121;1101;103121;-82
2021/07/03 03:52:35;;;;;;;5.08;4.58;;;;;;;17.09;77.41;99727.80;154118;1096;103188;-87
2021/07/03 03:55:41;;;;;;;6.07;4.23;;;;;;;17.07;78.76;99725.30;154030;1101;103128;-84
2021/07/03 03:58:46;;;;;;;5.35;3.75;;;;;;;17.02;78.01;99719.70;154170;1094;103183;-86
2021/07/03 04:01:55;;;;;;;5.77;4.20;;;;;;;16.99;78.43;99721.98;154121;1096;103123;-87
2021/07/03 04:05:01;;;;;;;5.80;4.50;;;;;;;16.88;80.04;99726.97;154196;1101;103214;-84
2021/07/03 04:08:06;;;;;;;8.80;4.37;;;;;;;16.85;78.53;99731.94;154148;1096;103142;-87
2021/07/03 04:11:12;;;;;;;5.30;4.67;;;;;;;16.84;79.84;99720.34;154274;1101;103118;-87
2021/07/03 04:14:17;;;;;;;6.10;4.23;;;;;;;16.91;80.11;99730.28;154192;1096;103142;-89
2021/07/03 04:17:22;;;;;;;5.90;4.65;;;;;;;16.92;78.84;99729.22;154089;1101;103254;-89
2021/07/03 04:20:28;;;;;;;5.23;4.73;;;;;;;16.94;78.86;99724.48;154097;1101;103219;-84
2021/07/03 04:23:33;;;;;;;6.73;4.90;;;;;;;16.95;79.25;99728.83;154084;1101;103107;-84
2021/07/03 04:26:38;;;;;;;6.20;4.90;;;;;;;16.93;78.53;99722.81;154126;1101;103117;-83
2021/07/03 04:29:43;;;;;;;5.73;4.53;;;;;;;16.91;81.18;99738.36;154069;1101;103142;-82
2021/07/03 04:32:48;;;;;;;5.55;4.95;;;;;;;16.87;79.68;99735.25;154030;1101;103179;-82
2021/07/03 04:35:53;;;;;;;4.80;4.30;;;;;;;16.84;80.02;99736.50;154111;1101;103556;-81
2021/07/03 04:38:58;;;;;;;6.60;4.33;;;;;;;16.80;80.70;99724.45;153985;1101;103128;-82
2021/07/03 04:42:04;;;;;;;5.40;4.57;;;;;;;16.82;80.56;99722.41;154128;1101;103138;-81
2021/07/03 04:45:10;;;;;;;5.57;4.70;;;;;;;16.82;80.29;99727.80;154050;1095;103126;-82
2021/07/03 04:48:15;;;;;;;6.17;4.83;;;;;;;16.84;80.59;99732.95;154074;1101;103560;-83
2021/07/03 04:51:25;;;;;;;5.53;4.53;;;;;;;16.81;80.62;99727.97;154075;1096;103496;-84
2021/07/03 04:54:30;;;;;;;6.03;4.70;;;;;;;16.80;80.55;99724.45;154256;1101;103199;-84
2021/07/03 04:57:35;;;;;;;5.03;4.50;;;;;;;16.83;80.47;99717.84;154028;1101;103198;-85
2021/07/03 05:00:40;;;;;;;6.03;5.10;;;;;;;16.85;80.68;99735.45;154061;1101;103131;-84
2021/07/03 05:03:46;;;;;;;5.83;5.23;;;;;;;16.85;81.62;99738.14;154108;1094;103127;-87
2021/07/03 05:06:51;;;;;;;7.00;5.10;;;;;;;16.86;81.60;99742.52;154137;1101;103116;-86
2021/07/03 05:09:56;;;;;;;5.88;4.60;;;;;;;16.90;79.80;99736.69;154163;1101;103128;-85
2021/07/03 05:13:01;;;;;;;4.75;4.30;;;;;;;16.98;80.58;99733.81;154159;1101;103130;-86
2021/07/03 05:16:06;;;;;;;5.55;4.75;;;;;;;17.01;80.76;99727.98;154123;1101;103143;-84
2021/07/03 05:19:11;;;;;;;6.37;4.87;;;;;;;17.03;80.68;99731.30;154097;1101;103196;-85
2021/07/03 05:22:16;;;;;;;6.50;5.10;;;;;;;17.03;79.90;99728.60;154262;1102;103111;-87
2021/07/03 05:25:22;;;;;;;5.65;5.05;;;;;;;17.04;79.73;99738.36;154120;1094;103097;-89
2021/07/03 05:28:27;;;;;;;5.33;4.83;;;;;;;17.04;80.84;99739.19;154144;1101;103562;-82
2021/07/03 05:31:33;;;;;;;7.00;5.40;;;;;;;17.04;80.49;99744.58;154133;1095;103537;-80
2021/07/03 05:34:38;;;;;;;5.80;5.20;;;;;;;17.03;81.43;99740.23;154177;1096;103177;-80
2021/07/03 05:37:44;;;;;;;5.10;4.60;;;;;;;17.04;81.94;99735.67;153969;1101;103202;-82
2021/07/03 05:40:49;;;;;;;5.53;4.50;;;;;;;17.04;81.24;99735.67;154076;1096;103567;-81
2021/07/03 05:43:54;;;;;;;5.20;4.70;;;;;;;17.07;81.05;99740.63;154121;1096;103110;-79
2021/07/03 05:46:59;;;;;;;6.20;4.85;;;;;;;17.07;81.58;99738.78;154412;1101;103200;-79
2021/07/03 05:50:05;;;;;;;6.60;5.20;;;;;;;16.97;81.51;99730.27;154254;1096;103169;-78
2021/07/03 05:53:11;;;;;;;4.77;4.30;;;;;;;16.95;81.46;99731.52;154451;1101;103195;-81
2021/07/03 05:56:16;;;;;;;5.27;4.60;;;;;;;16.97;81.56;99734.83;154625;1101;103262;-81
2021/07/03 05:59:21;;;;;;;5.90;5.30;;;;;;;17.02;82.09;99737.75;154149;1101;103557;-81
2021/07/03 06:02:26;;;;;;;5.97;5.37;;;;;;;17.05;81.91;99737.31;155335;1101;103129;-82
2021/07/03 06:05:31;;;;;;;5.53;4.93;;;;;;;17.04;81.12;99739.19;154258;1096;103236;-81
2021/07/03 06:08:36;;;;;;;5.50;4.53;;;;;;;17.15;81.63;99740.44;154146;1101;103480;-80
2021/07/03 06:11:41;;;;;;;5.07;4.57;;;;;;;17.26;81.53;99745.20;154486;1095;103127;-79
2021/07/03 06:14:46;;;;;;;6.70;5.00;;;;;;;17.36;80.53;99749.31;154316;1101;103128;-79
2021/07/03 06:17:51;;;;;;;5.37;4.87;;;;;;;17.33;81.62;99745.17;154001;1101;103134;-77
2021/07/03 06:20:56;;;;;;;6.40;4.40;;;;;;;17.35;80.95;99747.67;154140;1101;103251;-77
2021/07/03 06:24:01;;;;;;;5.18;4.65;;;;;;;17.45;80.94;99748.05;154268;1101;103532;-82
2021/07/03 06:27:07;;;;;;;5.53;4.63;;;;;;;17.56;80.36;99746.59;154080;1096;103214;-76
2021/07/03 06:30:14;;;;;;;5.18;4.68;;;;;;;17.67;80.91;99745.94;154091;1101;103148;-80
2021/07/03 06:33:19;;;;;;;5.50;5.00;;;;;;;17.71;80.21;99746.35;154155;1101;103121;-79
2021/07/03 06:36:25;;;;;;;5.93;5.00;;;;;;;17.76;79.98;99743.83;154101;1101;103554;-78
2021/07/03 06:39:30;;;;;;;5.85;5.25;;;;;;;17.80;80.93;99753.15;154183;1101;103445;-79
2021/07/03 06:42:35;;;;;;;5.77;5.03;;;;;;;17.89;80.30;99759.19;154104;1096;103220;-80
2021/07/03 06:45:40;;;;;;;6.50;5.90;;;;;;;17.95;79.91;99759.14;154248;1101;103560;-83
2021/07/03 06:48:45;;;;;;;6.00;5.20;;;;;;;17.94;80.09;99762.91;154223;1095;103208;-81
2021/07/03 06:51:50;;;;;;;8.27;5.60;;;;;;;17.91;80.51;99762.50;154345;1101;103150;-82
2021/07/03 06:54:55;;;;;;;6.20;5.60;;;;;;;17.90;80.26;99769.77;154132;1101;103134;-80
2021/07/03 06:58:00;;;;;;;6.75;5.88;;;;;;;17.92;80.13;99764.99;154009;1094;103107;-79
2021/07/03 07:01:05;;;;;;;7.05;5.93;;;;;;;17.94;80.46;99773.70;153946;1101;103142;-77
2021/07/03 07:04:10;;;;;;;6.23;5.60;;;;;;;17.93;80.64;99761.23;153961;1096;103128;-79
2021/07/03 07:07:15;;;;;;;5.65;5.15;;;;;;;17.95;80.27;99759.14;154128;1101;103186;-79
2021/07/03 07:10:20;;;;;;;6.43;5.80;;;;;;;18.00;80.07;99770.14;154040;1096;103525;-81
2021/07/03 07:13:25;;;;;;;6.23;5.37;;;;;;;18.07;79.69;99762.00;154099;1095;103195;-83
2021/07/03 07:16:31;;;;;;;6.20;5.37;;;;;;;18.15;79.87;99763.63;154078;1095;103145;-81
2021/07/03 07:19:36;;;;;;;7.23;5.53;;;;;;;18.22;79.96;99770.66;154140;1101;103195;-80
2021/07/03 07:22:41;;;;;;;6.95;6.25;;;;;;;18.26;79.35;99771.06;154095;1096;103123;-79
2021/07/03 07:25:47;;;;;;;6.73;6.03;;;;;;;18.25;79.65;99780.22;154144;1101;103573;-82
2021/07/03 07:28:52;;;;;;;6.43;5.83;;;;;;;18.31;79.96;99778.53;154003;1095;103106;-80
2021/07/03 07:31:57;;;;;;;6.83;6.05;;;;;;;18.42;79.48;99770.57;153951;1101;103356;-80
2021/07/03 07:35:02;;;;;;;7.23;6.53;;;;;;;18.57;79.42;99775.69;154078;1101;103103;-79
2021/07/03 07:38:07;;;;;;;6.70;5.68;;;;;;;18.64;79.31;99778.34;154018;1101;103203;-80
2021/07/03 07:41:12;;;;;;;6.30;5.70;;;;;;;18.73;79.25;99779.73;153977;1096;103102;-78
2021/07/03 07:44:17;;;;;;;6.58;5.88;;;;;;;18.79;78.83;99786.97;154010;1096;103215;-77
2021/07/03 07:47:23;;;;;;;6.80;6.05;;;;;;;18.81;78.70;99790.31;153972;1101;103121;-79
2021/07/03 07:50:28;;;;;;;8.63;6.13;;;;;;;18.85;78.51;99789.89;154233;1096;103155;-81
2021/07/03 07:53:34;;;;;;;7.10;5.57;;;;;;;18.82;78.61;99786.58;154242;1101;103283;-78
2021/07/03 07:56:39;;;;;;;5.88;5.28;;;;;;;18.85;78.58;99789.89;154136;1101;103190;-79
2021/07/03 07:59:44;;;;;;;7.30;6.10;;;;;;;18.90;78.60;99787.33;154037;1101;103660;-78
2021/07/03 08:02:49;;;;;;;6.93;6.20;;;;;;;18.95;78.29;99791.03;153994;1096;103203;-80
2021/07/03 08:05:54;;;;;;;9.87;6.30;;;;;;;18.91;78.25;99792.53;154078;1101;103102;-82
2021/07/03 08:08:59;;;;;;;7.08;5.88;;;;;;;18.85;78.32;99798.81;154142;1094;103316;-83
2021/07/03 08:12:05;;;;;;;6.70;6.00;;;;;;;18.78;78.49;99796.14;154093;1101;103188;-82
2021/07/03 08:15:12;;;;;;;7.17;6.47;;;;;;;18.75;78.37;99793.04;154059;1096;103126;-82
2021/07/03 08:18:19;;;;;;;8.03;6.58;;;;;;;18.64;79.22;99794.55;154081;1101;103195;-82
2021/07/03 08:21:24;;;;;;;9.17;6.50;;;;;;;18.60;78.99;99796.03;154138;1101;103198;-81
2021/07/03 08:24:30;;;;;;;9.63;6.30;;;;;;;18.63;79.15;99787.50;154078;1096;103310;-82
2021/07/03 08:27:35;;;;;;;7.93;6.70;;;;;;;18.67;78.91;99793.28;154283;1101;103129;-79
2021/07/03 08:30:40;;;;;;;7.50;6.75;;;;;;;18.66;79.24;99789.75;154255;1096;103195;-79
2021/07/03 08:33:45;;;;;;;10.20;7.73;;;;;;;18.73;79.09;99795.14;154105;1095;103199;-79
2021/07/03 08:36:50;;;;;;;9.13;7.37;;;;;;;18.87;79.00;99787.79;154128;1101;103132;-80
2021/07/03 08:39:55;;;;;;;8.50;7.10;;;;;;;18.86;79.33;99786.97;154489;1096;103300;-83
2021/07/03 08:43:00;;;;;;;9.20;6.95;;;;;;;18.90;79.25;99784.63;154005;1101;103198;-80
2021/07/03 08:46:05;;;;;;;8.23;6.50;;;;;;;19.02;78.95;99799.11;154160;1096;103139;-82
2021/07/03 08:49:10;;;;;;;6.55;5.90;;;;;;;19.08;78.87;99800.94;154260;1096;103163;-74
2021/07/03 08:52:15;;;;;;;7.70;6.50;;;;;;;19.05;79.27;99795.13;154278;1101;103585;-78
2021/07/03 08:55:22;;;;;;;9.08;6.90;;;;;;;18.97;79.35;99804.34;154191;1101;103272;-77
2021/07/03 08:58:28;;;;;;;6.40;5.43;;;;;;;18.95;78.99;99801.85;154120;1101;103129;-80
2021/07/03 09:01:33;;;;;;;8.97;5.57;;;;;;;18.94;78.99;99802.92;154176;1096;103275;-81
2021/07/03 09:04:40;;;;;;;10.20;5.60;;;;;;;18.89;79.00;99804.62;154208;1095;103125;-80
2021/07/03 09:07:45;;;;;;;7.53;5.50;;;;;;;18.89;79.22;99807.32;154233;1096;103136;-88
2021/07/03 09:11:00;;;;;;;5.50;4.70;;;;;;;18.86;79.50;99796.93;154037;1096;103263;-76
2021/07/03 09:14:07;;;;;;;6.97;4.73;;;;;;;18.88;79.24;99808.35;154049;1101;103161;-80
2021/07/03 09:17:16;;;;;;;5.77;4.97;;;;;;;18.94;79.13;99802.09;154212;1101;103115;-80
2021/07/03 09:20:31;;;;;;;7.23;4.80;;;;;;;18.99;79.32;99807.66;154168;1096;103487;-83
2021/07/03 09:23:38;;;;;;;5.43;4.80;;;;;;;18.85;78.82;99806.92;154325;1101;103143;-83
2021/07/03 09:26:43;;;;;;;6.35;4.55;;;;;;;18.81;79.13;99801.13;154177;1101;103190;-84
2021/07/03 09:29:57;;;;;;;5.13;4.65;;;;;;;18.89;79.37;99801.91;154143;1101;103586;-84
2021/07/03 09:33:02;;;;;;;6.53;4.85;;;;;;;18.98;78.98;99804.13;154176;1096;103510;-82
2021/07/03 09:36:09;;;;;;;5.53;4.50;;;;;;;19.08;79.05;99816.34;154123;1101;103131;-82
2021/07/03 09:39:23;;;;;;;4.95;4.45;;;;;;;19.16;78.75;99814.17;154209;1101;103525;-81
2021/07/03 09:42:37;;;;;;;6.00;4.73;;;;;;;19.14;78.38;99810.86;154139;1096;103196;-81
2021/07/03 09:45:49;;;;;;;5.53;5.00;;;;;;;19.11;78.29;99811.33;154242;1101;103223;-86
2021/07/03 09:48:56;;;;;;;4.70;4.13;;;;;;;19.14;78.62;99812.75;154452;1095;103127;-81
2021/07/03 09:52:02;;;;;;;4.45;4.05;;;;;;;19.26;78.50;99812.86;154173;1096;103145;-83
2021/07/03 09:55:10;;;;;;;6.48;4.75;;;;;;;19.36;78.45;99810.47;154138;1096;103195;-84
2021/07/03 09:58:16;;;;;;;6.73;5.07;;;;;;;19.32;78.31;99807.41;154256;1101;103177;-84
2021/07/03 10:01:21;;;;;;;6.60;4.50;;;;;;;19.20;78.21;99809.98;154270;1096;103238;-83
2021/07/03 10:04:26;;;;;;;4.77;4.27;;;;;;;19.17;78.74;99817.73;154334;1095;103214;-81
2021/07/03 10:07:39;;;;;;;5.23;4.20;;;;;;;19.11;78.18;99821.29;154470;1101;103099;-83
2021/07/03 10:10:55;;;;;;;5.53;4.53;;;;;;;19.11;78.74;99826.70;154298;1096;103102;-83
2021/07/03 10:14:04;;;;;;;7.80;4.80;;;;;;;19.05;78.86;99820.29;154844;1101;103282;-88
2021/07/03 10:17:09;;;;;;;6.03;4.70;;;;;;;19.01;78.73;99814.52;154468;1101;103238;-81
2021/07/03 10:20:17;;;;;;;5.17;4.63;;;;;;;19.09;78.90;99815.27;154521;1096;103183;-85
2021/07/03 10:23:23;;;;;;;6.33;5.03;;;;;;;19.13;78.99;99820.05;154329;1101;103147;-82
2021/07/03 10:26:38;;;;;;;7.63;5.50;;;;;;;19.16;78.42;99822.29;154194;1101;103203;-82
2021/07/03 10:29:44;;;;;;;5.03;4.53;;;;;;;19.16;78.58;99822.29;154397;1101;103278;-84
2021/07/03 10:32:57;;;;;;;5.17;4.67;;;;;;;19.22;78.58;99821.41;154273;1101;103124;-83
2021/07/03 10:36:03;;;;;;;5.70;5.20;;;;;;;19.41;78.77;99810.64;154281;1095;103195;-85
2021/07/03 10:39:09;;;;;;;8.15;5.50;;;;;;;19.64;78.47;99798.36;154202;1101;103199;-84
2021/07/03 10:42:14;;;;;;;5.83;5.10;;;;;;;19.87;78.46;99798.55;154433;1101;103196;-84
2021/07/03 10:45:22;;;;;;;5.50;5.00;;;;;;;19.97;78.04;99796.14;154476;1095;103278;-85
2021/07/03 10:48:28;;;;;;;6.00;5.10;;;;;;;20.18;77.81;99800.27;154232;1101;103106;-80
2021/07/03 10:51:36;;;;;;;6.23;5.60;;;;;;;20.36;77.89;99785.89;154170;1101;103149;-80
2021/07/03 10:54:42;;;;;;;7.90;5.38;;;;;;;20.52;77.61;99794.44;154070;1101;103209;-83
2021/07/03 10:57:47;;;;;;;5.78;5.18;;;;;;;20.68;77.38;99792.98;154187;1096;103195;-82
2021/07/03 11:00:52;;;;;;;5.08;4.60;;;;;;;20.71;77.28;99781.69;154307;1101;103278;-82
2021/07/03 11:03:57;;;;;;;5.20;4.70;;;;;;;20.81;76.86;99795.50;154192;1096;103135;-78
2021/07/03 11:07:11;;;;;;;6.03;4.97;;;;;;;20.78;76.85;99795.95;154310;1101;103122;-81
2021/07/03 11:10:18;;;;;;;5.90;5.30;;;;;;;20.66;76.52;99795.09;154392;1101;103128;-85
2021/07/03 11:13:25;;;;;;;5.43;4.93;;;;;;;20.52;75.93;99789.83;154122;1096;103138;-84
2021/07/03 11:16:30;;;;;;;5.97;5.30;;;;;;;20.50;76.60;99791.13;154125;1101;103191;-83
2021/07/03 11:19:36;;;;;;;5.38;4.88;;;;;;;20.46;76.45;99790.76;154118;1101;103198;-81
2021/07/03 11:22:45;;;;;;;5.60;5.10;;;;;;;20.49;76.92;99787.56;154115;1096;103223;-79
2021/07/03 11:25:50;;;;;;;5.97;5.27;;;;;;;20.49;76.42;99787.56;154087;1101;103131;-82
2021/07/03 11:28:58;;;;;;;5.00;4.50;;;;;;;20.53;76.69;99791.47;154130;1101;103132;-83
2021/07/03 11:32:09;;;;;;;5.25;4.73;;;;;;;20.57;75.91;99783.70;154024;1101;103212;-83
2021/07/03 11:35:14;;;;;;;5.40;4.90;;;;;;;20.67;76.51;99781.32;154145;1101;103252;-81
2021/07/03 11:38:23;;;;;;;5.50;4.90;;;;;;;20.73;76.18;99791.23;154073;1101;103221;-85
2021/07/03 11:41:29;;;;;;;6.50;5.45;;;;;;;20.72;75.75;99786.86;155710;1101;103048;-84
2021/07/03 11:44:34;;;;;;;5.45;4.95;;;;;;;20.62;74.99;99781.17;154822;1101;103128;-86
2021/07/03 11:47:41;;;;;;;5.77;4.90;;;;;;;20.49;75.34;99778.62;154155;1101;103280;-84
2021/07/03 11:50:48;;;;;;;5.50;4.87;;;;;;;20.55;75.69;99777.69;154162;1101;103243;-84
2021/07/03 11:53:56;;;;;;;5.88;5.38;;;;;;;20.68;75.98;99776.72;154112;1096;103220;-83
2021/07/03 11:57:02;;;;;;;5.63;5.13;;;;;;;20.74;75.12;99778.49;154144;1094;103200;-86
2021/07/03 12:00:11;;;;;;;6.77;5.63;;;;;;;20.71;74.46;99776.27;154176;1101;103134;-91
2021/07/03 12:03:18;;;;;;;5.80;5.20;;;;;;;20.86;74.54;99773.09;154235;1101;103296;-89
2021/07/03 12:06:24;;;;;;;5.80;5.07;;;;;;;21.12;74.13;99778.09;154318;1101;103172;-85
2021/07/03 12:09:37;;;;;;;5.20;4.70;;;;;;;21.13;73.76;99778.92;154223;1101;103126;-82
2021/07/03 12:12:41;;;;;;;5.77;4.87;;;;;;;21.13;74.03;99773.48;155395;1101;103136;-82
2021/07/03 12:15:49;;;;;;;5.30;4.80;;;;;;;21.10;71.69;99779.41;154384;1094;103128;-80
2021/07/03 12:18:56;;;;;;;4.90;4.40;;;;;;;21.05;71.54;99768.42;154223;1101;103289;-80
2021/07/03 12:22:08;;;;;;;5.00;4.17;;;;;;;21.01;71.35;99772.66;154097;1101;103127;-80
2021/07/03 12:25:16;;;;;;;4.20;3.80;;;;;;;21.10;73.55;99757.70;154064;1097;103224;-80
2021/07/03 12:28:21;;;;;;;5.45;4.50;;;;;;;21.28;72.96;99759.47;153979;1101;103153;-79
2021/07/03 12:31:30;;;;;;;4.77;4.37;;;;;;;21.27;71.62;99766.80;154022;1101;103132;-81
2021/07/03 12:34:39;;;;;;;5.00;4.53;;;;;;;21.16;71.73;99764.89;154097;1097;103184;-83
2021/07/03 12:37:44;;;;;;;5.20;4.70;;;;;;;21.26;72.08;99756.17;154198;1101;103144;-85
2021/07/03 12:40:49;;;;;;;4.73;4.10;;;;;;;21.44;72.77;99753.38;154114;1101;103443;-85
2021/07/03 12:43:57;;;;;;;4.40;4.00;;;;;;;21.77;72.44;99746.48;154032;1101;103196;-82
2021/07/03 12:47:03;;;;;;;4.40;3.50;;;;;;;22.16;72.23;99741.29;154161;1095;103188;-84
2021/07/03 12:50:11;;;;;;;4.48;4.08;;;;;;;22.38;69.48;99741.45;154181;1097;103154;-79
2021/07/03 12:53:16;;;;;;;5.00;4.35;;;;;;;22.35;69.34;99742.78;154179;1096;103217;-78
2021/07/03 12:56:22;;;;;;;6.10;4.13;;;;;;;22.28;67.72;99736.66;154163;1095;103146;-79
2021/07/03 12:59:37;;;;;;;4.77;4.20;;;;;;;22.21;66.42;99746.84;154206;1094;103227;-77
2021/07/03 13:02:42;;;;;;;4.77;4.10;;;;;;;21.95;68.46;99757.17;153979;1096;103146;-76
2021/07/03 13:05:58;;;;;;;4.10;3.80;;;;;;;21.79;67.07;99749.79;154083;1101;103196;-83
2021/07/03 13:09:04;;;;;;;4.30;3.90;;;;;;;21.61;67.36;99763.50;154174;1101;103106;-83
2021/07/03 13:12:10;;;;;;;5.07;3.70;;;;;;;21.53;69.26;99746.50;154603;1101;103150;-82
2021/07/03 13:15:15;;;;;;;7.80;4.00;;;;;;;21.57;68.07;99755.00;154226;1095;103189;-83
2021/07/03 13:18:21;;;;;;;4.93;3.80;;;;;;;21.61;68.93;99753.45;154085;1101;103157;-84
2021/07/03 13:21:26;;;;;;;3.90;3.60;;;;;;;21.65;68.53;99756.52;154086;1101;103726;-82
2021/07/03 13:24:31;;;;;;;4.40;3.60;;;;;;;21.64;67.68;99758.42;154112;1101;103216;-84
2021/07/03 13:27:36;;;;;;;4.33;3.68;;;;;;;21.69;69.21;99749.55;154105;1095;103227;-82
2021/07/03 13:30:42;;;;;;;7.08;3.98;;;;;;;21.60;66.97;99751.01;154033;1101;103241;-84
2021/07/03 13:33:47;;;;;;;4.20;3.80;;;;;;;21.62;68.20;99759.73;154113;1101;103134;-82
2021/07/03 13:36:52;;;;;;;4.73;4.27;;;;;;;21.69;69.23;99750.40;154195;1096;103273;-86
2021/07/03 13:39:57;;;;;;;5.20;4.53;;;;;;;21.67;67.94;99751.68;154047;1101;103240;-85
2021/07/03 13:43:02;;;;;;;7.40;4.63;;;;;;;21.60;67.90;99748.29;154284;1096;103172;-88
2021/07/03 13:46:07;;;;;;;6.25;5.20;;;;;;;21.45;67.10;99755.02;154207;1096;103113;-80
2021/07/03 13:49:12;;;;;;;5.35;4.85;;;;;;;21.47;68.08;99743.92;154210;1096;103113;-82
2021/07/03 13:52:17;;;;;;;5.30;4.68;;;;;;;21.43;68.07;99738.11;154183;1101;103573;-78
2021/07/03 13:55:23;;;;;;;6.37;4.60;;;;;;;21.43;68.10;99729.16;154158;1096;103590;-85
2021/07/03 13:58:28;;;;;;;5.10;4.60;;;;;;;21.50;68.31;99729.89;154060;1096;103197;-82
2021/07/03 14:01:33;;;;;;;5.28;4.30;;;;;;;21.65;68.77;99722.08;154134;1096;103131;-83
2021/07/03 14:04:38;;;;;;;5.00;4.60;;;;;;;21.73;68.00;99718.16;154173;1095;103102;-82
2021/07/03 14:07:43;;;;;;;5.53;5.00;;;;;;;21.76;67.86;99721.20;154647;1101;103107;-82
2021/07/03 14:10:48;;;;;;;5.53;4.93;;;;;;;21.88;67.93;99723.91;154572;1101;103124;-81
2021/07/03 14:13:53;;;;;;;6.55;4.83;;;;;;;22.04;68.38;99713.35;154434;1101;103224;-82
2021/07/03 14:16:58;;;;;;;5.90;4.83;;;;;;;22.14;68.19;99708.92;154229;1101;103149;-82